DFELB EDDN-EDDE
Flight info
| Callsign | DFELB |
|---|---|
| Flight time | 0h 28m |
| Altitude | 12000 |
| Route | ERETO1G ERETO DCT LASGA M726 NARUS NARUS1V |
| Aircraft | TBM9/L-SDFGRWY/S |
Departure
| Time | 2026-05-06 14:32 |
|---|---|
| Airport | Nuremberg Airport (EDDN) |
Arrival
| Time | 2026-05-06 15:01 |
|---|---|
| Airport | Erfurt-Weimar Airport (EDDE) |
| Time | Latitude | Longitude | Altitude | Speed | Heading |
|---|---|---|---|---|---|
| 2026-05-06 14:19 | 49.49419 | 11.06865 | 1021 ft | 0 kts | 278° |
| 2026-05-06 14:27 | 49.49412 | 11.06897 | 1018 ft | 0 kts | 300° |
| 2026-05-06 14:27 | 49.49452 | 11.06902 | 1021 ft | 9 kts | 8° |
| 2026-05-06 14:28 | 49.49519 | 11.06940 | 1021 ft | 12 kts | 69° |
| 2026-05-06 14:28 | 49.49511 | 11.07079 | 1021 ft | 15 kts | 101° |
| 2026-05-06 14:28 | 49.49524 | 11.07191 | 1021 ft | 12 kts | 15° |
| 2026-05-06 14:28 | 49.49617 | 11.07212 | 1020 ft | 15 kts | 31° |
| 2026-05-06 14:29 | 49.49625 | 11.07370 | 1020 ft | 17 kts | 97° |
| 2026-05-06 14:29 | 49.49617 | 11.07484 | 1020 ft | 10 kts | 95° |
| 2026-05-06 14:29 | 49.49604 | 11.07606 | 1021 ft | 13 kts | 102° |
| 2026-05-06 14:29 | 49.49588 | 11.07750 | 1022 ft | 15 kts | 97° |
| 2026-05-06 14:30 | 49.49574 | 11.07910 | 1022 ft | 8 kts | 95° |
| 2026-05-06 14:30 | 49.49566 | 11.08005 | 1023 ft | 10 kts | 98° |
| 2026-05-06 14:30 | 49.49551 | 11.08129 | 1023 ft | 13 kts | 101° |
| 2026-05-06 14:30 | 49.49540 | 11.08284 | 1024 ft | 15 kts | 81° |
| 2026-05-06 14:31 | 49.49612 | 11.08387 | 1028 ft | 14 kts | 44° |
| 2026-05-06 14:31 | 49.49674 | 11.08509 | 1030 ft | 15 kts | 50° |
| 2026-05-06 14:31 | 49.49772 | 11.08548 | 1032 ft | 16 kts | 328° |
| 2026-05-06 14:31 | 49.49813 | 11.08291 | 1028 ft | 53 kts | 278° |
| 2026-05-06 14:32 | 49.49910 | 11.07376 | 1128 ft | 110 kts | 277° |
| 2026-05-06 14:32 | 49.50071 | 11.06158 | 1678 ft | 120 kts | 285° |
| 2026-05-06 14:32 | 49.50291 | 11.04794 | 2169 ft | 140 kts | 276° |
| 2026-05-06 14:32 | 49.50349 | 11.03243 | 2773 ft | 153 kts | 275° |
| 2026-05-06 14:33 | 49.50484 | 11.01555 | 3402 ft | 164 kts | 278° |
| 2026-05-06 14:33 | 49.50660 | 10.99763 | 4038 ft | 174 kts | 279° |
| 2026-05-06 14:33 | 49.50849 | 10.97874 | 4675 ft | 182 kts | 279° |
| 2026-05-06 14:33 | 49.51086 | 10.95912 | 5311 ft | 189 kts | 289° |
| 2026-05-06 14:34 | 49.51767 | 10.94188 | 5945 ft | 193 kts | 313° |
| 2026-05-06 14:34 | 49.52842 | 10.92984 | 6579 ft | 192 kts | 335° |
| 2026-05-06 14:34 | 49.54140 | 10.92528 | 7211 ft | 192 kts | 359° |
| 2026-05-06 14:34 | 49.55477 | 10.92568 | 7834 ft | 191 kts | 0° |
| 2026-05-06 14:35 | 49.56809 | 10.92590 | 8456 ft | 192 kts | 1° |
| 2026-05-06 14:35 | 49.58143 | 10.92625 | 9076 ft | 191 kts | 1° |
| 2026-05-06 14:35 | 49.59460 | 10.92660 | 9689 ft | 192 kts | 1° |
| 2026-05-06 14:35 | 49.60799 | 10.92695 | 10308 ft | 192 kts | 1° |
| 2026-05-06 14:36 | 49.62135 | 10.92733 | 10925 ft | 192 kts | 1° |
| 2026-05-06 14:36 | 49.63471 | 10.92768 | 11545 ft | 192 kts | 1° |
| 2026-05-06 14:36 | 49.64816 | 10.92929 | 11995 ft | 202 kts | 11° |
| 2026-05-06 14:36 | 49.66278 | 10.93523 | 12011 ft | 229 kts | 15° |
| 2026-05-06 14:37 | 49.67887 | 10.94145 | 12012 ft | 246 kts | 13° |
| 2026-05-06 14:37 | 49.69591 | 10.94691 | 12075 ft | 262 kts | 10° |
| 2026-05-06 14:37 | 49.71443 | 10.95265 | 11953 ft | 277 kts | 11° |
| 2026-05-06 14:37 | 49.73373 | 10.95903 | 11836 ft | 288 kts | 12° |
| 2026-05-06 14:38 | 49.75361 | 10.96567 | 11784 ft | 292 kts | 12° |
| 2026-05-06 14:38 | 49.77332 | 10.97205 | 11781 ft | 293 kts | 11° |
| 2026-05-06 14:38 | 49.79333 | 10.97849 | 11782 ft | 293 kts | 11° |
| 2026-05-06 14:38 | 49.81220 | 10.98469 | 11780 ft | 293 kts | 11° |
| 2026-05-06 14:39 | 49.83226 | 10.99128 | 11777 ft | 294 kts | 11° |
| 2026-05-06 14:39 | 49.85217 | 10.99780 | 11774 ft | 291 kts | 11° |
| 2026-05-06 14:39 | 49.87198 | 11.00423 | 11773 ft | 290 kts | 11° |
| 2026-05-06 14:39 | 49.89168 | 11.01070 | 11768 ft | 288 kts | 11° |
| 2026-05-06 14:40 | 49.91130 | 11.01714 | 11770 ft | 288 kts | 11° |
| 2026-05-06 14:40 | 49.93089 | 11.02359 | 11765 ft | 287 kts | 11° |
| 2026-05-06 14:40 | 49.95023 | 11.02997 | 11762 ft | 287 kts | 11° |
| 2026-05-06 14:40 | 49.96980 | 11.03637 | 11760 ft | 286 kts | 11° |
| 2026-05-06 14:41 | 49.98935 | 11.04283 | 11767 ft | 287 kts | 11° |
| 2026-05-06 14:41 | 50.00895 | 11.04932 | 11764 ft | 287 kts | 11° |
| 2026-05-06 14:41 | 50.02850 | 11.05576 | 11766 ft | 287 kts | 11° |
| 2026-05-06 14:41 | 50.04777 | 11.06209 | 11762 ft | 286 kts | 11° |
| 2026-05-06 14:42 | 50.06735 | 11.06859 | 11684 ft | 288 kts | 11° |
| 2026-05-06 14:42 | 50.08721 | 11.07520 | 11442 ft | 294 kts | 11° |
| 2026-05-06 14:42 | 50.10744 | 11.08196 | 11201 ft | 297 kts | 12° |
| 2026-05-06 14:42 | 50.12765 | 11.08869 | 10946 ft | 297 kts | 11° |
| 2026-05-06 14:43 | 50.14798 | 11.09534 | 10697 ft | 298 kts | 11° |
| 2026-05-06 14:43 | 50.16801 | 11.10201 | 10456 ft | 297 kts | 11° |
| 2026-05-06 14:43 | 50.18829 | 11.10877 | 10208 ft | 297 kts | 11° |
| 2026-05-06 14:43 | 50.20853 | 11.11548 | 9968 ft | 296 kts | 11° |
| 2026-05-06 14:44 | 50.22864 | 11.12213 | 9783 ft | 294 kts | 11° |
| 2026-05-06 14:44 | 50.24842 | 11.12866 | 9776 ft | 287 kts | 11° |
| 2026-05-06 14:44 | 50.26760 | 11.13499 | 9770 ft | 283 kts | 11° |
| 2026-05-06 14:45 | 50.30598 | 11.14787 | 9763 ft | 280 kts | 11° |
| 2026-05-06 14:45 | 50.32506 | 11.15423 | 9763 ft | 280 kts | 11° |
| 2026-05-06 14:45 | 50.34406 | 11.16059 | 9764 ft | 279 kts | 11° |
| 2026-05-06 14:45 | 50.36309 | 11.16698 | 9766 ft | 279 kts | 11° |
| 2026-05-06 14:46 | 50.38210 | 11.17336 | 9767 ft | 279 kts | 11° |
| 2026-05-06 14:46 | 50.40118 | 11.17973 | 9762 ft | 280 kts | 11° |
| 2026-05-06 14:46 | 50.41997 | 11.18611 | 9764 ft | 279 kts | 11° |
| 2026-05-06 14:46 | 50.43899 | 11.19241 | 9762 ft | 280 kts | 10° |
| 2026-05-06 14:47 | 50.45807 | 11.19874 | 9764 ft | 279 kts | 11° |
| 2026-05-06 14:47 | 50.47685 | 11.20515 | 9753 ft | 280 kts | 11° |
| 2026-05-06 14:47 | 50.49618 | 11.21177 | 9497 ft | 287 kts | 11° |
| 2026-05-06 14:47 | 50.51587 | 11.21844 | 9228 ft | 290 kts | 11° |
| 2026-05-06 14:48 | 50.53567 | 11.22511 | 8970 ft | 292 kts | 11° |
| 2026-05-06 14:48 | 50.55556 | 11.23184 | 8707 ft | 292 kts | 11° |
| 2026-05-06 14:48 | 50.57545 | 11.23850 | 8447 ft | 292 kts | 11° |
| 2026-05-06 14:48 | 50.59539 | 11.24517 | 8187 ft | 291 kts | 11° |
| 2026-05-06 14:49 | 50.61513 | 11.25190 | 7931 ft | 289 kts | 11° |
| 2026-05-06 14:49 | 50.63459 | 11.25852 | 7680 ft | 289 kts | 11° |
| 2026-05-06 14:49 | 50.65429 | 11.26514 | 7426 ft | 289 kts | 10° |
| 2026-05-06 14:49 | 50.67406 | 11.27186 | 6965 ft | 292 kts | 11° |
| 2026-05-06 14:50 | 50.69405 | 11.27867 | 6673 ft | 289 kts | 11° |
| 2026-05-06 14:50 | 50.71329 | 11.28520 | 6664 ft | 278 kts | 11° |
| 2026-05-06 14:50 | 50.73207 | 11.29147 | 6661 ft | 274 kts | 11° |
| 2026-05-06 14:50 | 50.75040 | 11.29766 | 6653 ft | 271 kts | 11° |
| 2026-05-06 14:51 | 50.76871 | 11.30393 | 6709 ft | 268 kts | 11° |
| 2026-05-06 14:51 | 50.78702 | 11.31017 | 6712 ft | 269 kts | 11° |
| 2026-05-06 14:51 | 50.80535 | 11.31652 | 6709 ft | 270 kts | 11° |
| 2026-05-06 14:51 | 50.82344 | 11.32274 | 6702 ft | 250 kts | 11° |
| 2026-05-06 14:52 | 50.83973 | 11.32959 | 5776 ft | 253 kts | 22° |
| 2026-05-06 14:52 | 50.85500 | 11.34222 | 6070 ft | 250 kts | 30° |
| 2026-05-06 14:52 | 50.86970 | 11.35819 | 5790 ft | 266 kts | 37° |
| 2026-05-06 14:52 | 50.88514 | 11.37534 | 5442 ft | 274 kts | 32° |
| 2026-05-06 14:53 | 50.90243 | 11.38785 | 5199 ft | 274 kts | 17° |
| 2026-05-06 14:53 | 50.92113 | 11.39301 | 5058 ft | 270 kts | 358° |
| 2026-05-06 14:53 | 50.93918 | 11.38731 | 5029 ft | 255 kts | 339° |
| 2026-05-06 14:53 | 50.95229 | 11.36994 | 3863 ft | 261 kts | 297° |
| 2026-05-06 14:54 | 50.96075 | 11.34523 | 3260 ft | 227 kts | 297° |
| 2026-05-06 14:54 | 50.96669 | 11.32516 | 3357 ft | 181 kts | 285° |
| 2026-05-06 14:54 | 50.96669 | 11.30587 | 3079 ft | 178 kts | 266° |
| 2026-05-06 14:54 | 50.96701 | 11.28752 | 2854 ft | 156 kts | 263° |
| 2026-05-06 14:55 | 50.96632 | 11.27033 | 2425 ft | 161 kts | 269° |
| 2026-05-06 14:55 | 50.96721 | 11.25306 | 2353 ft | 147 kts | 279° |
| 2026-05-06 14:55 | 50.96948 | 11.23817 | 2452 ft | 132 kts | 278° |
| 2026-05-06 14:55 | 50.97012 | 11.22428 | 2544 ft | 122 kts | 268° |
| 2026-05-06 14:56 | 50.97039 | 11.21050 | 2637 ft | 130 kts | 259° |
| 2026-05-06 14:56 | 50.96958 | 11.19595 | 2757 ft | 134 kts | 269° |
| 2026-05-06 14:56 | 50.96991 | 11.18116 | 2882 ft | 136 kts | 269° |
| 2026-05-06 14:56 | 50.97006 | 11.16618 | 3022 ft | 135 kts | 271° |
| 2026-05-06 14:57 | 50.97080 | 11.15141 | 3142 ft | 135 kts | 271° |
| 2026-05-06 14:57 | 50.97102 | 11.13647 | 3266 ft | 135 kts | 267° |
| 2026-05-06 14:57 | 50.97170 | 11.12154 | 3244 ft | 145 kts | 273° |
| 2026-05-06 14:57 | 50.97227 | 11.10538 | 3078 ft | 141 kts | 268° |
| 2026-05-06 14:58 | 50.97211 | 11.09026 | 2745 ft | 133 kts | 269° |
| 2026-05-06 14:58 | 50.97185 | 11.07698 | 2587 ft | 116 kts | 265° |
| 2026-05-06 14:58 | 50.97177 | 11.06455 | 2342 ft | 112 kts | 275° |
| 2026-05-06 14:58 | 50.97225 | 11.05295 | 2054 ft | 112 kts | 266° |
| 2026-05-06 14:59 | 50.97248 | 11.04020 | 2037 ft | 122 kts | 272° |
| 2026-05-06 14:59 | 50.97312 | 11.02557 | 1912 ft | 138 kts | 279° |
| 2026-05-06 14:59 | 50.97484 | 11.01072 | 1559 ft | 133 kts | 281° |
| 2026-05-06 14:59 | 50.97656 | 10.99842 | 1292 ft | 88 kts | 276° |
| 2026-05-06 15:00 | 50.97717 | 10.98989 | 1176 ft | 73 kts | 275° |
| 2026-05-06 15:00 | 50.97783 | 10.98189 | 1096 ft | 69 kts | 277° |
| 2026-05-06 15:00 | 50.97840 | 10.97463 | 1047 ft | 63 kts | 276° |
| 2026-05-06 15:00 | 50.97897 | 10.96851 | 1022 ft | 50 kts | 277° |
| 2026-05-06 15:01 | 50.97931 | 10.96401 | 1022 ft | 32 kts | 272° |
| 2026-05-06 15:01 | 50.97830 | 10.96284 | 1021 ft | 0 kts | 184° |
| 2026-05-06 15:01 | 50.97825 | 10.96284 | 1021 ft | 4 kts | 180° |
| 2026-05-06 15:02 | 50.97782 | 10.96274 | 1021 ft | 8 kts | 190° |
| 2026-05-06 15:02 | 50.97731 | 10.96306 | 1021 ft | 10 kts | 109° |
| 2026-05-06 15:02 | 50.97707 | 10.96422 | 1020 ft | 12 kts | 149° |
| 2026-05-06 15:02 | 50.97647 | 10.96500 | 1020 ft | 13 kts | 97° |
| 2026-05-06 15:03 | 50.97646 | 10.96515 | 1020 ft | 0 kts | 97° |